Date,TemperatureHighF,TemperatureAvgF,TemperatureLowF,DewpointHighF,DewpointAvgF,DewpointLowF,HumidityHigh,HumidityAvg,HumidityLow,PressureMaxIn,PressureMinIn,WindSpeedMaxMPH,WindSpeedAvgMPH,GustSpeedMaxMPH,PrecipitationSumIn
2013-1-1,39,36,32,29,28,24,82,73,65,30.04,29.93,10,2,12,0.05
2013-1-2,33,28,25,25,17,12,77,63,45,30.26,30.01,8,2,10,0.00
2013-1-3,39,29,19,21,17,14,81,62,45,30.26,30.15,10,2,15,0.00
2013-1-4,35,31,29,22,21,19,72,65,57,30.24,30.14,13,5,20,0.00
2013-1-5,45,34,28,25,21,20,72,60,39,30.40,30.19,14,2,17,0.00
2013-1-6,42,38,33,30,26,22,76,61,55,30.19,30.03,6,1,10,0.00
2013-1-7,40,34,26,31,25,22,84,70,54,30.47,30.18,10,2,13,0.00
2013-1-8,53,34,21,32,25,19,93,71,39,30.44,30.34,3,0,5,0.00
2013-1-9,53,39,28,44,31,25,89,75,55,30.45,30.24,9,2,12,0.00
2013-1-10,52,43,37,33,28,25,68,56,39,30.62,30.44,9,1,12,0.00
2013-1-11,46,41,39,40,33,28,96,75,56,30.45,30.09,10,1,16,0.15
2013-1-12,61,46,38,50,43,37,97,89,68,30.18,30.07,4,0,5,0.00
2013-1-13,55,50,43,51,47,42,97,91,82,30.08,29.92,5,0,6,0.00
2013-1-14,56,46,36,55,40,32,97,81,64,30.33,29.92,9,2,12,0.22
2013-1-15,39,35,32,35,32,30,96,89,71,30.37,30.15,5,0,5,0.50
2013-1-16,42,35,32,37,33,30,97,92,71,30.16,29.86,9,1,10,0.21
2013-1-17,41,36,33,32,28,24,81,71,54,30.16,30.02,10,1,13,0.00
2013-1-18,36,30,25,26,15,10,76,54,35,30.51,30.11,22,3,22,0.00
2013-1-19,60,43,26,23,17,13,63,38,17,30.35,29.89,9,2,17,0.00
2013-1-20,49,43,31,30,19,6,55,38,22,30.09,29.81,16,5,26,0.00
2013-1-21,43,30,19,18,13,4,63,51,26,30.09,29.83,17,2,18,0.00
2013-1-22,19,14,10,3,-2,-5,63,49,39,30.32,30.01,16,4,19,0.00
2013-1-23,21,15,9,12,0,-3,83,53,38,30.37,30.13,10,2,13,0.00
2013-1-24,24,17,13,14,6,-4,90,65,41,30.57,30.10,13,2,17,0.02
2013-1-25,19,15,10,15,7,-4,90,72,46,30.56,30.09,5,0,11,0.00
2013-1-26,30,25,16,24,19,14,90,79,63,30.48,30.09,9,1,13,0.05
2013-1-27,38,30,19,21,18,13,77,61,45,30.61,30.46,4,1,6,0.01
2013-1-28,55,38,28,50,35,20,97,89,71,30.44,30.07,6,1,9,0.23
2013-1-29,71,60,52,56,52,49,91,75,53,30.12,29.89,6,1,12,0.00
2013-1-30,70,60,53,58,53,48,95,81,62,29.89,29.23,15,2,24,1.01
2013-1-31,52,33,26,50,23,10,95,67,51,29.89,29.15,20,6,25,0.14
2013-2-1,27,20,13,22,10,3,90,67,53,30.40,29.83,15,4,17,0.00
2013-2-2,30,19,8,23,10,2,93,69,46,30.40,30.03,7,1,10,0.00
2013-2-3,33,26,21,26,21,13,93,82,65,30.04,29.83,14,2,16,0.04
2013-2-4,34,26,21,27,17,10,95,70,45,30.10,29.89,15,2,18,0.00
2013-2-5,38,32,28,34,30,26,96,91,78,29.96,29.85,7,1,7,0.13
2013-2-6,36,33,26,32,26,21,87,77,68,30.36,29.95,10,2,14,0.02
2013-2-7,37,30,22,27,23,20,92,76,62,30.41,30.18,7,1,13,0.01
2013-2-8,39,33,29,34,29,21,94,84,72,30.18,29.82,21,2,22,0.02
2013-2-9,37,30,25,22,17,13,77,61,41,30.42,30.04,17,4,21,0.00
2013-2-10,47,32,17,24,17,13,86,58,33,30.46,30.16,7,1,10,0.00
2013-2-11,66,46,35,50,33,20,96,66,21,30.16,29.70,24,3,24,0.09
2013-2-12,53,44,39,30,25,20,59,47,31,29.99,29.84,18,4,21,0.00
2013-2-13,43,34,28,33,26,20,96,75,45,29.94,29.67,7,0,7,0.05
2013-2-14,48,38,30,32,28,24,96,69,48,30.01,29.82,7,1,10,0.10
2013-2-15,48,38,30,34,30,25,90,74,51,30.05,29.96,7,1,9,0.04
2013-2-16,35,31,23,28,21,13,82,67,50,30.01,29.90,11,2,11,0.00
2013-2-17,26,22,19,15,11,5,83,64,45,30.27,29.90,16,5,19,0.00
2013-2-18,48,30,16,20,10,4,63,46,24,30.40,30.08,9,1,11,0.00
2013-2-19,52,40,30,39,27,18,86,61,43,30.07,29.67,16,4,22,0.12
2013-2-20,30,25,20,20,12,6,64,57,48,30.22,29.88,17,6,24,0.00
2013-2-21,33,25,21,16,13,9,73,60,48,30.38,30.17,15,3,16,0.00
2013-2-22,31,27,22,26,21,14,85,78,63,30.39,30.16,7,1,10,0.00
2013-2-23,51,36,29,36,31,26,92,81,56,30.17,29.85,5,1,8,0.01
2013-2-24,45,34,28,34,26,17,96,75,48,30.15,29.85,10,2,16,0.00
2013-2-25,49,35,26,23,20,18,73,56,31,30.25,30.15,5,1,8,0.00
2013-2-26,38,34,29,35,27,19,96,75,53,30.19,29.68,8,1,18,0.66
2013-2-27,45,39,34,41,34,32,97,82,62,29.71,29.61,10,1,15,0.05
2013-2-28,39,37,34,32,28,25,77,70,62,29.77,29.66,10,3,17,0.00
2013-3-1,39,34,30,28,26,21,78,70,57,29.94,29.77,8,3,15,0.00
2013-3-2,32,28,26,22,19,17,75,68,60,29.93,29.87,10,3,13,0.00
2013-3-3,34,28,25,20,18,15,75,64,48,29.99,29.88,12,4,15,0.00
2013-3-4,40,30,23,18,15,12,68,54,37,30.10,29.99,13,3,17,0.00
2013-3-5,52,37,28,29,18,13,90,49,25,30.09,29.77,7,1,12,0.00
2013-3-6,38,33,31,34,30,29,96,91,72,30.04,29.72,5,1,9,0.28
2013-3-7,42,38,34,30,28,26,84,67,57,30.23,30.11,11,3,14,0.45
2013-3-8,40,35,32,29,26,24,80,72,63,30.39,30.21,13,3,16,0.00
2013-3-9,57,42,28,27,23,16,82,51,24,30.43,30.28,4,0,6,0.00
2013-3-10,65,44,29,32,26,22,78,51,25,30.29,30.14,6,1,12,0.00
2013-3-11,58,51,44,47,33,23,81,51,35,30.15,29.81,8,2,16,0.01
2013-3-12,57,46,38,51,39,26,93,77,60,30.00,29.72,10,3,16,0.28
2013-3-13,44,35,29,29,23,18,80,62,40,30.09,29.94,18,4,20,0.00
2013-3-14,41,32,27,19,16,13,66,51,39,30.18,30.09,19,6,21,0.00
2013-3-15,54,43,32,33,25,17,58,49,38,30.14,29.81,15,3,15,0.00
2013-3-16,48,42,36,37,35,32,93,78,53,29.92,29.64,8,1,9,0.02
2013-3-17,38,35,33,34,28,23,93,74,56,30.25,29.92,9,0,9,0.00
2013-3-18,34,31,29,31,27,21,94,85,59,30.28,29.89,10,1,18,0.00
2013-3-19,50,39,31,34,25,11,96,62,26,29.96,29.77,20,4,26,0.51
2013-3-20,48,37,31,29,17,12,85,46,25,29.98,29.78,14,5,20,0.00
2013-3-21,32,26,23,24,14,8,78,59,38,29.94,29.82,11,3,21,0.00
2013-3-22,44,32,24,20,16,12,63,53,36,30.04,29.92,13,4,17,0.00
2013-3-23,51,36,24,24,20,17,76,54,32,30.06,29.95,9,2,12,0.00
2013-3-24,43,32,26,30,23,19,94,71,43,30.01,29.63,4,0,6,0.00
2013-3-25,37,33,30,33,31,28,96,92,83,29.73,29.54,4,0,5,0.43
2013-3-26,42,36,32,30,29,26,92,74,54,30.05,29.73,10,2,16,0.13
2013-3-27,43,37,33,30,28,25,83,69,52,30.16,30.04,10,3,14,0.00
2013-3-28,42,38,35,30,28,26,74,67,60,30.26,30.12,12,3,13,0.00
2013-3-29,54,44,36,32,27,23,74,54,34,30.28,30.16,9,1,12,0.00
2013-3-30,59,44,31,28,22,14,77,44,19,30.26,30.09,6,1,10,0.00
2013-3-31,46,42,34,44,35,19,97,80,39,30.08,29.75,6,0,10,0.26
2013-4-1,51,43,35,44,31,15,89,64,40,30.00,29.75,12,3,15,0.01
2013-4-2,45,36,29,19,15,11,57,43,27,30.20,30.00,13,3,15,0.00
2013-4-3,46,36,29,19,14,9,54,42,24,30.42,30.19,16,3,18,0.00
2013-4-4,52,36,20,19,12,6,72,40,17,30.41,30.05,10,1,11,0.00
2013-4-5,62,48,36,32,24,14,73,42,25,30.10,29.88,13,3,20,0.00
2013-4-6,60,44,30,23,18,11,71,39,16,30.32,30.11,10,2,14,0.00
2013-4-7,47,47,47,21,20,20,35,35,35,30.18,30.17,4,2,9,0.00
2013-4-8,80,74,69,45,44,42,40,34,28,29.99,29.89,7,1,10,0.00
2013-4-9,87,74,65,54,50,44,58,45,29,30.06,29.88,8,2,12,0.00
2013-4-10,90,78,68,57,52,48,59,41,28,29.94,29.74,15,3,26,0.00
2013-4-11,85,70,57,57,54,51,82,60,35,29.87,29.65,7,1,12,0.00
2013-4-12,76,60,49,62,50,35,97,72,35,29.80,29.54,11,3,18,0.58
2013-4-13,67,54,44,36,32,26,63,45,25,29.98,29.80,12,4,15,0.00
2013-4-14,69,53,40,38,33,30,74,49,27,30.16,29.98,8,1,9,0.00
2013-4-15,65,59,54,50,45,36,82,61,44,30.22,30.08,11,2,17,0.00
2013-4-16,85,66,54,59,54,49,91,67,38,30.22,30.03,11,2,15,0.40
2013-4-17,76,64,57,62,58,55,97,83,59,30.18,30.09,6,1,8,0.04
2013-4-18,78,67,59,63,57,54,88,72,54,30.17,29.88,9,2,15,0.00
2013-4-19,74,64,48,63,54,35,92,70,59,29.89,29.52,15,4,18,0.43
2013-4-20,57,47,39,37,28,24,67,50,32,30.38,29.80,15,4,16,0.00
2013-4-21,58,43,31,27,24,20,82,49,24,30.60,30.38,8,1,11,0.00
2013-4-22,61,48,38,33,28,21,69,46,27,30.55,30.36,9,2,10,0.00
2013-4-23,69,49,34,44,37,31,88,65,38,30.38,30.08,5,1,8,0.00
2013-4-24,80,57,42,60,46,38,92,71,36,30.10,29.71,12,2,17,0.12
2013-4-25,63,46,39,38,30,20,74,57,22,30.31,30.09,11,2,14,0.00
2013-4-26,66,52,40,37,33,28,82,50,25,30.47,30.31,7,1,9,0.00
2013-4-27,75,56,38,43,37,32,81,51,27,30.40,30.22,8,1,9,0.00
2013-4-28,58,53,50,50,44,39,90,73,50,30.23,30.07,7,1,14,0.13
2013-4-29,65,55,50,55,50,45,91,84,71,30.09,30.01,5,1,9,0.01
2013-4-30,64,56,52,57,52,49,95,88,74,30.28,30.08,6,0,10,0.02
2013-5-1,76,61,51,50,39,26,87,49,17,30.38,30.27,5,1,10,0.00
2013-5-2,75,59,45,46,41,35,86,55,26,30.40,30.29,6,1,13,0.00
2013-5-3,71,57,43,49,43,37,91,62,38,30.36,30.23,7,1,12,0.00
2013-5-4,72,56,43,46,41,37,86,58,35,30.30,30.14,7,1,10,0.00
2013-5-5,69,56,44,43,39,35,79,55,29,30.20,30.09,5,1,8,0.00
2013-5-6,59,53,46,55,48,40,95,83,67,30.15,30.04,8,1,9,0.23
2013-5-7,59,57,54,58,56,52,97,95,92,30.04,29.92,5,1,8,1.66
2013-5-8,66,57,50,60,53,50,98,88,68,30.01,29.91,7,0,9,0.30
2013-5-9,73,61,50,60,54,49,95,78,55,30.01,29.90,7,1,8,0.02
2013-5-10,84,62,53,64,56,50,96,82,42,30.01,29.83,5,0,12,0.55
2013-5-11,69,62,58,64,58,49,97,87,66,29.84,29.73,8,1,10,0.30
2013-5-12,58,52,46,50,37,27,80,57,38,30.04,29.78,9,2,11,0.00
2013-5-13,55,46,40,32,30,25,71,54,33,30.19,30.03,7,1,10,0.00
2013-5-14,64,48,32,40,34,29,92,61,34,30.24,30.00,6,0,8,0.00
2013-5-15,89,68,47,64,50,37,86,55,30,30.00,29.69,8,1,14,0.00
2013-5-16,77,70,62,65,57,51,89,65,42,29.94,29.75,9,2,12,0.08
2013-5-17,86,70,58,62,57,50,93,66,30,30.09,29.94,4,0,6,0.00
2013-5-18,73,64,58,63,56,48,93,76,65,30.17,30.08,5,0,9,0.00
2013-5-19,69,62,58,65,59,56,95,90,80,30.17,30.05,4,0,7,0.00
2013-5-20,88,72,61,71,64,60,97,80,47,30.09,29.93,4,0,10,0.00
2013-5-21,92,76,62,71,66,60,96,73,39,29.97,29.80,4,0,6,0.00
2013-5-22,91,75,64,69,64,55,95,72,31,29.89,29.78,10,1,11,0.09
2013-5-23,80,67,62,71,64,59,97,89,62,29.85,29.69,3,0,12,0.45
2013-5-24,62,51,43,59,44,32,92,75,56,30.23,29.76,12,2,13,0.00
2013-5-25,64,50,39,42,36,31,78,58,35,30.27,30.15,9,2,14,0.00
2013-5-26,72,56,44,42,36,33,70,50,27,30.27,30.16,5,1,9,0.00
2013-5-27,64,54,41,53,45,36,89,71,52,30.30,30.18,3,0,3,0.00
2013-5-28,83,62,51,72,58,49,97,88,58,30.19,30.02,4,0,5,0.12
2013-5-29,88,74,62,67,63,58,97,70,42,30.10,30.04,9,0,11,0.01
2013-5-30,80,67,63,67,60,58,89,79,60,30.18,30.07,2,0,5,0.00
2013-6-6,64,62,61,62,61,59,96,95,91,29.92,29.83,7,0,7,0.31
2013-6-7,67,64,62,66,63,61,98,96,94,29.83,29.66,4,0,6,0.20
2013-6-8,79,66,59,68,60,56,97,82,55,30.10,29.77,4,0,5,0.01
2013-6-9,82,68,57,68,62,56,96,82,60,30.18,30.05,5,1,9,0.00
2013-6-10,79,69,65,75,67,63,97,93,79,30.06,29.76,4,0,10,0.59
2013-6-11,76,69,63,67,63,60,95,83,73,29.86,29.78,6,1,9,0.00
2013-6-12,86,76,66,73,67,62,90,75,56,29.88,29.76,4,0,6,0.06
2013-6-13,76,68,62,70,64,55,96,89,78,29.76,29.50,7,1,12,0.49
2013-6-14,78,66,57,63,56,52,88,71,48,30.01,29.67,5,0,7,0.00
2013-6-15,82,68,57,62,55,50,90,65,36,30.10,29.99,3,0,7,0.00
2013-6-16,80,69,60,68,60,52,89,74,63,30.03,29.88,5,1,11,0.00
2013-6-17,86,75,68,71,65,61,81,71,55,29.95,29.86,3,0,5,0.00
2013-6-18,71,68,63,68,64,61,96,90,78,29.90,29.80,2,0,4,0.17
2013-6-19,79,66,59,64,60,56,97,81,49,30.13,29.89,3,0,5,0.00
2013-6-20,84,68,57,70,62,56,96,81,59,30.22,30.13,4,0,6,0.00
2013-6-21,85,71,60,70,63,58,96,76,54,30.25,30.17,4,0,9,0.00
2013-6-22,91,75,60,71,63,58,92,69,42,30.22,30.07,5,0,7,0.00
2013-6-23,90,76,64,72,66,62,95,74,46,30.16,30.03,4,0,5,0.00
2013-6-24,88,74,65,73,67,62,94,79,49,30.12,30.00,4,0,12,0.34
2013-6-25,90,78,68,74,67,59,88,71,47,30.03,29.87,10,1,16,0.00
2013-6-26,85,74,64,72,66,60,90,78,59,29.92,29.81,5,0,8,0.00
2013-6-27,78,72,64,73,68,63,97,89,78,29.82,29.62,4,0,10,0.12
2013-6-28,85,72,66,72,66,61,88,80,57,29.61,29.47,8,1,10,0.02
2013-6-29,87,72,63,68,63,59,93,75,41,29.69,29.51,5,0,7,0.01
2013-6-30,89,71,61,74,66,60,98,85,54,29.83,29.68,8,0,8,0.01
2013-7-1,85,74,67,74,69,66,96,85,63,29.93,29.80,4,0,7,0.02
2013-7-2,85,76,70,73,69,66,93,79,61,30.09,29.93,8,1,13,0.00
2013-7-3,89,76,71,75,69,66,93,80,58,30.18,30.08,5,1,7,0.02
2013-7-4,92,79,69,77,70,67,94,74,48,30.20,30.10,9,0,13,0.00
2013-7-5,92,80,69,76,70,67,92,72,48,30.17,30.06,10,1,13,0.01
2013-7-6,95,80,68,74,69,66,95,71,44,30.17,30.00,5,1,9,0.00
2013-7-7,91,74,67,74,68,66,97,81,53,30.07,29.99,4,0,7,0.29
2013-7-8,86,74,64,72,66,63,97,79,50,30.11,30.03,3,0,6,0.01
2013-7-9,87,76,69,73,68,65,94,79,57,30.09,29.96,4,0,7,0.01
2013-7-10,75,74,72,68,68,67,85,81,78,30.00,29.96,2,0,4,0.00
2013-7-11,84,76,66,72,68,64,94,78,63,29.97,29.87,3,0,4,0.20
2013-7-12,71,66,63,68,65,62,97,94,87,30.08,29.93,3,0,4,0.22
2013-7-13,85,72,65,73,68,64,98,87,59,30.24,30.06,3,0,5,0.00
2013-7-14,89,78,70,74,70,68,95,77,51,30.31,30.24,7,0,9,0.00
2013-7-15,93,79,67,76,70,65,94,75,47,30.31,30.19,4,0,5,0.00
2013-7-16,94,80,72,78,71,68,88,75,54,30.27,30.16,4,0,5,0.00
2013-7-17,94,82,73,77,72,69,90,74,51,30.24,30.07,4,0,4,0.00
2013-7-18,97,83,73,77,73,70,91,73,45,30.12,29.98,4,0,5,0.00
2013-7-19,97,81,70,77,72,67,92,77,45,30.00,29.85,10,0,18,0.02
2013-7-20,91,77,70,75,70,67,91,78,54,29.89,29.83,5,1,8,0.00
2013-7-21,83,74,69,72,69,68,94,85,65,29.94,29.87,4,0,13,0.01
2013-7-22,86,72,66,76,69,65,98,93,65,29.94,29.75,3,0,5,1.12
2013-7-23,84,73,66,72,68,62,98,85,62,29.75,29.66,5,0,9,0.09
2013-7-24,79,70,62,68,62,55,96,79,57,29.94,29.68,4,0,7,0.00
2013-7-25,80,65,54,61,56,52,95,73,40,30.07,29.94,6,0,6,0.00
2013-7-26,83,68,54,63,57,52,96,72,42,30.12,30.00,3,0,5,0.00
2013-7-27,68,63,60,66,60,58,95,91,81,30.01,29.95,2,0,4,0.01
2013-7-29,80,68,57,59,55,53,90,65,41,30.17,30.02,4,0,6,0.00
2013-7-30,83,69,57,64,58,53,90,69,46,30.23,30.12,3,0,4,0.00
2013-7-31,82,67,59,68,62,57,97,84,59,30.15,29.96,6,0,6,0.37
2013-8-1,82,70,64,71,66,63,97,87,63,29.96,29.81,4,0,5,0.02
2013-8-2,83,72,62,66,61,57,94,72,44,29.96,29.87,5,1,6,0.00
2013-8-3,72,68,64,67,63,59,96,83,68,29.96,29.90,6,0,9,0.06
2013-8-4,79,67,58,64,58,53,98,77,44,30.05,29.95,5,0,8,0.01
2013-8-5,82,67,56,61,55,51,91,68,37,30.12,30.00,5,0,5,0.00
2013-8-6,82,67,59,67,61,55,96,81,56,30.04,29.98,5,0,9,0.03
2013-8-7,86,72,66,74,67,64,97,85,64,30.04,29.93,6,0,8,0.76
2013-8-8,78,71,67,74,70,66,97,95,88,29.99,29.93,4,0,7,0.38
2013-8-9,81,73,70,76,71,69,98,94,78,29.97,29.87,5,0,9,0.62
2013-8-10,84,73,66,71,67,61,98,84,51,30.07,29.96,3,0,4,0.02
2013-8-11,88,73,65,72,67,64,97,83,52,30.10,29.97,2,0,5,0.00
2013-8-12,87,75,66,71,67,64,96,79,49,30.02,29.87,4,0,7,0.12
2013-8-13,82,71,64,72,66,57,98,86,66,29.87,29.73,5,0,6,0.80
2013-8-14,71,61,51,57,53,48,90,75,56,30.13,29.87,7,0,7,0.00
2013-8-15,77,61,50,59,52,48,96,75,44,30.21,30.10,3,0,5,0.00
2013-8-16,81,64,50,63,55,49,96,75,43,30.19,30.12,3,0,4,0.00
2013-8-17,78,65,52,63,57,50,96,76,50,30.27,30.18,3,0,8,0.00
2013-8-18,68,63,59,62,59,57,97,89,69,30.26,30.17,4,0,5,0.29
2013-8-19,79,66,58,72,64,57,98,92,76,30.17,30.05,2,0,4,0.06
2013-8-20,84,72,64,69,64,58,98,80,43,30.18,30.09,3,0,5,0.01
2013-8-21,87,71,61,75,67,60,97,87,58,30.19,30.05,3,0,3,0.01
2013-8-22,86,74,68,71,66,63,96,77,58,30.09,29.93,4,0,6,0.00
2013-8-23,71,67,63,67,65,61,97,92,83,30.06,29.94,3,0,6,1.04
2013-8-25,84,74,66,66,62,59,81,67,49,30.32,30.23,3,0,4,0.00
2013-8-26,86,71,58,69,62,56,95,74,51,30.26,30.00,5,0,7,0.00
2013-8-27,82,76,72,73,68,63,83,78,72,30.00,29.89,7,0,9,0.00
2013-8-28,76,72,69,72,70,68,98,94,81,29.92,29.77,4,0,6,0.65
2013-8-29,86,74,68,74,70,66,98,86,56,30.00,29.86,3,0,5,0.01
2013-8-30,90,74,63,73,67,62,98,81,46,30.02,29.83,3,0,9,0.00
2013-8-31,87,76,68,77,69,66,96,80,54,29.85,29.75,4,0,6,0.00
2013-9-1,88,76,66,75,69,64,96,82,58,29.83,29.74,4,0,5,0.00
2013-9-2,87,76,69,74,69,65,96,80,58,29.80,29.70,4,0,7,0.13
2013-9-3,80,70,62,66,61,55,91,74,50,29.99,29.75,5,0,7,0.00
2013-9-4,82,66,54,61,56,52,95,72,43,30.11,29.99,4,0,6,0.00
2013-9-5,79,68,60,65,57,50,82,69,48,30.15,30.04,5,1,8,0.00
2013-9-6,75,60,48,57,50,46,94,72,40,30.27,30.13,4,0,5,0.00
2013-9-7,83,64,48,60,53,47,96,72,33,30.15,29.95,4,0,8,0.00
2013-9-8,84,71,60,71,63,54,96,77,61,30.03,29.88,4,0,5,0.08
2013-9-9,76,66,58,64,58,50,91,75,58,30.18,30.04,3,0,8,0.00
2013-9-10,92,75,62,75,68,61,96,80,55,30.16,30.06,4,0,7,0.00
2013-9-11,94,79,70,76,71,67,94,79,50,30.14,29.98,7,0,7,0.03
2013-9-12,88,75,67,74,68,63,95,80,51,30.00,29.74,5,1,7,0.00
2013-9-13,74,63,53,64,56,47,93,78,48,29.97,29.73,7,0,8,0.04
2013-9-14,67,54,46,49,46,43,93,75,47,30.18,29.97,5,0,6,0.00
2013-9-15,78,59,43,59,51,42,96,76,46,30.23,30.06,3,0,9,0.00
2013-9-16,69,61,57,60,56,53,97,85,65,30.25,30.03,2,0,4,0.11
2013-9-17,70,56,47,54,45,37,95,70,34,30.43,30.25,4,0,5,0.00
2013-9-18,74,52,39,53,45,38,95,77,42,30.33,30.17,5,0,6,0.00
2013-9-19,54,54,53,49,49,48,85,84,83,30.19,30.18,1,0,1,0.00
2013-9-20,76,70,68,63,62,62,83,76,65,29.92,29.89,5,1,9,0.00
2013-9-21,74,66,58,66,62,58,97,88,73,29.90,29.65,8,1,10,0.66
2013-9-22,69,58,50,60,53,46,97,83,56,29.99,29.74,5,0,6,0.01
2013-9-23,57,52,50,48,46,44,90,82,66,30.12,29.98,2,0,3,0.00
2013-9-24,70,54,38,53,45,37,97,75,44,30.15,29.97,4,0,5,0.00
2013-9-25,64,58,53,51,50,49,90,75,62,29.95,29.90,1,0,1,0.00
2013-9-26,77,58,47,57,50,45,97,77,37,30.08,29.95,3,0,4,0.00
2013-9-27,54,50,47,50,47,46,96,92,84,30.18,30.08,3,0,3,0.00
2013-9-28,64,58,46,57,52,46,98,82,64,30.32,30.22,2,0,5,0.00
2013-9-29,76,56,43,56,49,42,97,79,46,30.22,30.06,3,0,5,0.01
2013-9-30,76,62,46,59,53,45,96,75,48,30.09,29.98,3,0,5,0.00
2013-10-1,79,67,58,62,58,56,93,73,50,30.09,29.97,4,0,6,0.00
2013-10-2,73,72,72,59,59,58,62,62,62,30.03,30.03,0,0,1,0.00
2013-10-7,63,57,51,56,47,44,85,71,65,28.93,28.69,6,1,11,0.02
2013-10-8,63,54,48,47,44,42,81,71,50,29.12,28.93,2,0,3,0.00
2013-10-9,60,50,42,50,44,40,96,81,51,29.18,29.08,3,0,4,0.00
2013-10-10,52,51,49,51,48,44,97,91,76,29.08,28.90,2,0,4,0.77
2013-10-11,57,54,51,56,53,50,98,98,97,28.90,28.85,2,0,2,1.09
2013-10-12,62,59,57,61,58,56,99,98,94,28.96,28.87,5,0,5,0.55
2013-10-13,58,56,55,57,55,54,99,98,97,29.15,29.03,3,0,5,0.30
2013-10-14,62,57,53,58,56,53,99,94,85,29.16,29.07,3,0,4,0.01
2013-10-15,71,59,50,59,53,49,98,83,52,29.08,28.92,6,0,6,0.00
2013-10-16,70,61,49,60,55,48,97,82,63,28.87,28.74,4,0,5,0.00
2013-10-17,67,62,53,63,58,46,95,88,77,28.74,28.53,7,1,11,0.15
2013-10-18,64,54,46,47,42,39,80,65,42,28.86,28.72,7,2,10,0.00
2013-10-19,54,47,38,49,42,36,96,86,64,28.82,28.61,8,1,11,0.00
2013-10-20,61,49,41,41,36,33,80,61,39,28.91,28.75,6,1,11,0.00
2013-10-21,73,51,35,46,39,32,93,66,32,28.94,28.74,8,1,16,0.00
2013-10-22,56,52,46,47,41,32,86,69,47,28.74,28.67,9,1,9,0.00
2013-10-23,45,41,35,40,36,32,93,85,79,28.74,28.55,6,1,8,0.02
2013-10-24,44,38,34,35,32,29,93,79,60,28.95,28.74,7,1,7,0.03
2013-10-25,47,38,33,35,30,28,83,72,56,29.11,28.95,9,1,12,0.00
2013-10-26,44,37,30,32,29,26,85,73,54,29.01,28.96,9,1,9,0.00
2013-10-27,57,50,40,36,32,30,72,52,39,28.94,28.84,7,1,10,0.00
2013-10-28,61,43,31,39,34,29,94,72,40,29.09,28.94,2,0,3,0.00
2013-10-29,63,46,35,42,37,33,94,73,39,29.21,29.09,4,0,5,0.00
2013-10-31,69,68,62,57,56,54,84,65,61,28.71,28.66,5,2,13,0.03
2013-11-1,70,63,56,60,48,43,90,60,41,28.54,28.33,14,2,27,0.12
2013-11-2,57,52,46,46,42,37,74,68,64,28.73,28.51,6,1,9,0.00
2013-11-3,55,47,36,39,29,20,74,51,29,29.24,28.73,9,2,11,0.00
2013-11-4,45,36,26,26,22,19,84,61,37,29.41,29.23,6,1,10,0.00
2013-11-5,52,42,32,41,29,22,78,60,37,29.39,29.20,4,1,7,0.00
2013-11-6,72,54,36,52,43,33,90,68,48,29.22,28.81,10,1,11,0.00
2013-11-7,60,50,39,50,39,22,91,67,49,28.93,28.71,11,3,19,0.18
2013-11-8,47,40,33,29,25,22,68,56,41,29.11,28.90,13,3,16,0.00
2013-11-9,60,55,32,32,27,23,69,36,27,29.10,28.86,5,1,7,0.00
2013-11-10,54,47,40,34,28,26,58,48,39,29.06,28.81,20,5,20,0.00
2013-11-11,62,47,36,32,25,9,73,47,15,29.09,28.82,8,1,11,0.00
2013-11-12,51,36,29,38,23,14,87,60,42,29.22,28.82,14,4,16,0.00
2013-11-13,31,30,30,20,19,19,64,63,61,29.23,29.21,5,2,11,0.00
2013-11-14,51,43,35,17,13,4,42,30,22,29.14,29.01,6,1,7,0.00
2013-11-15,52,40,32,26,19,15,56,43,23,29.08,28.97,3,0,4,0.00
2013-11-16,64,55,49,49,46,40,91,74,53,29.09,28.97,6,1,11,0.02
2013-11-17,63,57,50,56,52,48,94,83,71,28.97,28.48,12,2,22,0.02
2013-11-18,62,55,49,57,33,26,84,44,30,28.74,28.48,17,5,23,0.07
2013-11-19,43,37,30,26,24,22,73,60,51,29.19,28.86,12,3,16,0.00
2013-11-20,35,31,29,27,24,22,76,74,70,29.30,29.18,4,0,11,0.00
2013-11-21,52,40,32,37,33,26,84,74,55,29.31,29.13,5,0,7,0.00
2013-11-22,53,46,39,49,41,34,94,83,71,29.14,28.86,12,1,15,0.02
2013-11-23,45,36,23,39,25,13,80,65,43,29.05,28.88,16,4,19,0.00
2013-11-24,26,22,17,13,6,-100,64,51,42,30.55,29.05,18,0,18,0.00
2013-11-25,41,27,16,13,8,3,69,46,23,30.56,30.29,9,1,9,0.00
2013-11-26,35,32,30,32,24,11,97,77,39,30.29,29.68,6,0,6,1.03
2013-11-27,36,31,24,33,26,14,97,82,63,30.09,29.63,21,4,21,0.05
2013-11-28,32,26,22,22,17,13,79,66,55,30.48,30.09,17,3,17,0.00
2013-11-29,37,30,24,23,21,19,82,70,54,30.72,30.47,8,0,8,0.00
2013-11-30,34,26,18,23,20,16,91,77,61,30.72,30.34,7,1,9,0.00
2013-12-1,38,30,21,29,24,18,89,78,68,30.35,30.02,3,0,3,0.00
2013-12-2,47,39,34,34,31,28,80,73,61,30.02,29.85,6,0,6,0.00
2013-12-3,56,42,33,39,34,30,90,74,50,29.98,29.87,4,0,4,0.00
2013-12-4,54,44,31,44,38,28,95,81,61,30.07,29.96,6,1,6,0.00
2013-12-5,55,48,38,50,45,37,97,89,78,30.03,29.89,5,0,5,0.03
2013-12-6,52,41,34,50,40,33,97,95,90,30.19,29.87,8,1,8,1.32
2013-12-7,34,31,25,34,27,19,97,83,72,30.56,30.16,11,2,11,0.01
2013-12-8,26,24,22,24,21,18,94,89,81,30.58,30.29,5,0,6,0.00
2013-12-9,42,33,25,38,30,24,97,90,78,30.31,30.05,10,1,10,0.35
2013-12-10,35,31,27,30,24,15,95,76,58,30.22,29.99,15,3,17,0.06
2013-12-11,36,29,23,21,15,11,67,56,37,30.39,30.22,12,2,13,0.01
2013-12-12,31,24,19,21,9,3,72,55,40,30.44,30.25,15,3,16,0.00
2013-12-13,39,30,23,20,13,6,59,48,41,30.31,30.22,10,2,10,0.01
2013-12-14,33,32,30,31,28,18,96,88,57,30.30,29.74,8,0,8,0.11
2013-12-15,37,32,30,35,28,22,97,83,72,29.96,29.65,15,3,16,0.16
2013-12-16,32,30,28,25,23,22,84,77,70,30.16,29.95,13,2,13,0.00
2013-12-17,41,32,27,34,28,24,95,85,70,30.11,29.93,11,1,11,0.10
2013-12-18,34,31,28,25,22,19,79,69,64,30.22,30.00,13,2,14,0.01
2013-12-19,57,43,25,35,26,16,72,51,33,30.17,30.06,14,2,16,0.00
2013-12-20,58,48,39,42,33,26,72,58,46,30.08,29.93,7,0,7,0.00
2013-12-21,67,59,49,58,49,41,82,70,54,29.96,29.78,14,2,14,0.00
2013-12-22,70,64,57,60,55,52,90,74,59,29.94,29.68,20,2,20,0.05
2013-12-23,57,46,33,54,41,24,97,83,69,30.24,29.85,14,2,15,0.16
2013-12-24,33,27,17,25,17,7,74,64,45,30.50,30.21,12,3,17,0.00
2013-12-25,35,23,15,15,11,7,77,59,40,30.58,30.32,9,1,9,0.00
2013-12-26,40,32,25,26,18,13,74,57,46,30.36,30.22,15,2,16,0.00
2013-12-27,48,38,28,21,17,12,61,44,23,30.40,30.31,12,2,13,0.00
2013-12-28,56,46,37,26,22,19,51,40,30,30.32,30.08,11,1,11,0.00
2013-12-29,45,42,37,43,36,21,97,82,39,30.08,29.59,17,2,17,1.15
2013-12-30,43,35,27,38,28,20,84,78,73,30.17,29.83,13,2,13,0.00
2013-12-31,35,29,26,23,19,16,83,66,52,30.32,30.10,21,3,23,0.00
2014-1-1,50,35,25,25,20,16,76,57,33,30.37,30.09,8,1,8,0.00
2014-1-2,31,28,23,26,24,18,95,88,76,30.09,29.67,10,0,10,0.00